sensor_id;sensor_type;location;lat;lon;timestamp;P1;durP1;ratioP1;P2;durP2;ratioP2
14187;SDS011;7175;51.978;5.330;2022-12-29T00:02:02;26.53;;;24.53;;
14187;SDS011;7175;51.978;5.330;2022-12-29T00:04:30;26.43;;;24.43;;
14187;SDS011;7175;51.978;5.330;2022-12-29T00:06:58;26.73;;;24.73;;
14187;SDS011;7175;51.978;5.330;2022-12-29T00:09:27;26.03;;;24.10;;
14187;SDS011;7175;51.978;5.330;2022-12-29T00:11:55;27.17;;;25.17;;
14187;SDS011;7175;51.978;5.330;2022-12-29T00:14:24;26.10;;;24.20;;
14187;SDS011;7175;51.978;5.330;2022-12-29T00:17:12;25.17;;;23.27;;
14187;SDS011;7175;51.978;5.330;2022-12-29T00:19:40;26.00;;;24.00;;
14187;SDS011;7175;51.978;5.330;2022-12-29T00:22:26;26.37;;;24.37;;
14187;SDS011;7175;51.978;5.330;2022-12-29T00:25:11;26.40;;;24.40;;
14187;SDS011;7175;51.978;5.330;2022-12-29T00:27:57;25.90;;;23.90;;
14187;SDS011;7175;51.978;5.330;2022-12-29T00:30:45;25.27;;;23.37;;
14187;SDS011;7175;51.978;5.330;2022-12-29T00:33:30;25.10;;;23.20;;
14187;SDS011;7175;51.978;5.330;2022-12-29T00:36:17;25.03;;;23.13;;
14187;SDS011;7175;51.978;5.330;2022-12-29T00:38:49;24.67;;;22.77;;
14187;SDS011;7175;51.978;5.330;2022-12-29T00:41:37;23.77;;;21.97;;
14187;SDS011;7175;51.978;5.330;2022-12-29T00:44:23;23.40;;;21.60;;
14187;SDS011;7175;51.978;5.330;2022-12-29T00:46:52;24.47;;;22.60;;
14187;SDS011;7175;51.978;5.330;2022-12-29T00:49:20;24.97;;;23.07;;
14187;SDS011;7175;51.978;5.330;2022-12-29T00:51:57;24.20;;;22.40;;
14187;SDS011;7175;51.978;5.330;2022-12-29T00:54:28;24.50;;;22.70;;
14187;SDS011;7175;51.978;5.330;2022-12-29T00:56:57;23.97;;;22.17;;
14187;SDS011;7175;51.978;5.330;2022-12-29T00:59:25;23.40;;;21.60;;
14187;SDS011;7175;51.978;5.330;2022-12-29T01:01:55;23.80;;;22.00;;
14187;SDS011;7175;51.978;5.330;2022-12-29T01:04:24;24.43;;;22.63;;
14187;SDS011;7175;51.978;5.330;2022-12-29T01:06:53;24.90;;;23.00;;
14187;SDS011;7175;51.978;5.330;2022-12-29T01:09:21;25.97;;;23.97;;
14187;SDS011;7175;51.978;5.330;2022-12-29T01:12:12;27.60;;;25.50;;
14187;SDS011;7175;51.978;5.330;2022-12-29T01:14:41;28.27;;;26.17;;
14187;SDS011;7175;51.978;5.330;2022-12-29T01:17:10;28.70;;;26.50;;
14187;SDS011;7175;51.978;5.330;2022-12-29T01:19:39;30.43;;;28.13;;
14187;SDS011;7175;51.978;5.330;2022-12-29T01:22:07;32.30;;;29.90;;
14187;SDS011;7175;51.978;5.330;2022-12-29T01:24:35;34.23;;;31.73;;
14187;SDS011;7175;51.978;5.330;2022-12-29T01:27:03;34.90;;;32.30;;
14187;SDS011;7175;51.978;5.330;2022-12-29T01:29:31;32.63;;;30.13;;
14187;SDS011;7175;51.978;5.330;2022-12-29T01:31:59;33.73;;;31.20;;
14187;SDS011;7175;51.978;5.330;2022-12-29T01:34:28;32.63;;;30.10;;
14187;SDS011;7175;51.978;5.330;2022-12-29T01:36:56;33.10;;;30.60;;
14187;SDS011;7175;51.978;5.330;2022-12-29T01:39:25;35.73;;;33.03;;
14187;SDS011;7175;51.978;5.330;2022-12-29T01:41:53;32.80;;;30.20;;
14187;SDS011;7175;51.978;5.330;2022-12-29T01:47:25;35.70;;;32.90;;
14187;SDS011;7175;51.978;5.330;2022-12-29T01:50:00;35.33;;;32.63;;
14187;SDS011;7175;51.978;5.330;2022-12-29T01:52:32;34.97;;;32.27;;
14187;SDS011;7175;51.978;5.330;2022-12-29T01:55:04;38.13;;;35.20;;
14187;SDS011;7175;51.978;5.330;2022-12-29T01:57:34;40.67;;;37.57;;
14187;SDS011;7175;51.978;5.330;2022-12-29T02:00:05;41.10;;;37.90;;
14187;SDS011;7175;51.978;5.330;2022-12-29T02:02:35;41.67;;;38.47;;
14187;SDS011;7175;51.978;5.330;2022-12-29T02:05:07;38.47;;;35.47;;
14187;SDS011;7175;51.978;5.330;2022-12-29T02:07:43;39.33;;;36.33;;
14187;SDS011;7175;51.978;5.330;2022-12-29T02:10:12;39.13;;;36.13;;
14187;SDS011;7175;51.978;5.330;2022-12-29T02:12:40;39.97;;;36.87;;
14187;SDS011;7175;51.978;5.330;2022-12-29T02:15:09;37.63;;;34.73;;
14187;SDS011;7175;51.978;5.330;2022-12-29T02:17:47;37.70;;;34.80;;
14187;SDS011;7175;51.978;5.330;2022-12-29T02:20:45;36.20;;;33.43;;
14187;SDS011;7175;51.978;5.330;2022-12-29T02:26:41;33.10;;;30.60;;
14187;SDS011;7175;51.978;5.330;2022-12-29T02:29:26;30.30;;;28.00;;
14187;SDS011;7175;51.978;5.330;2022-12-29T02:32:24;30.77;;;28.47;;
14187;SDS011;7175;51.978;5.330;2022-12-29T02:35:01;29.57;;;27.30;;
14187;SDS011;7175;51.978;5.330;2022-12-29T02:37:36;29.60;;;27.37;;
14187;SDS011;7175;51.978;5.330;2022-12-29T02:40:13;29.07;;;26.87;;
14187;SDS011;7175;51.978;5.330;2022-12-29T02:42:49;29.73;;;27.43;;
14187;SDS011;7175;51.978;5.330;2022-12-29T02:45:20;30.40;;;28.10;;
14187;SDS011;7175;51.978;5.330;2022-12-29T02:47:54;30.43;;;28.13;;
14187;SDS011;7175;51.978;5.330;2022-12-29T02:50:32;32.67;;;30.17;;
14187;SDS011;7175;51.978;5.330;2022-12-29T02:53:05;33.47;;;30.97;;
14187;SDS011;7175;51.978;5.330;2022-12-29T02:55:36;36.03;;;33.33;;
14187;SDS011;7175;51.978;5.330;2022-12-29T02:58:16;35.73;;;33.03;;
14187;SDS011;7175;51.978;5.330;2022-12-29T03:00:53;37.37;;;34.57;;
14187;SDS011;7175;51.978;5.330;2022-12-29T03:03:36;37.67;;;34.87;;
14187;SDS011;7175;51.978;5.330;2022-12-29T03:06:20;36.40;;;33.70;;
14187;SDS011;7175;51.978;5.330;2022-12-29T03:08:59;33.47;;;30.97;;
14187;SDS011;7175;51.978;5.330;2022-12-29T03:11:46;31.47;;;29.07;;
14187;SDS011;7175;51.978;5.330;2022-12-29T03:14:50;31.83;;;29.43;;
14187;SDS011;7175;51.978;5.330;2022-12-29T03:17:46;30.53;;;28.23;;
14187;SDS011;7175;51.978;5.330;2022-12-29T03:20:20;30.23;;;28.03;;
14187;SDS011;7175;51.978;5.330;2022-12-29T03:22:53;31.40;;;29.10;;
14187;SDS011;7175;51.978;5.330;2022-12-29T03:25:28;29.97;;;27.77;;
14187;SDS011;7175;51.978;5.330;2022-12-29T03:28:00;30.17;;;27.87;;
14187;SDS011;7175;51.978;5.330;2022-12-29T03:30:31;30.13;;;27.83;;
14187;SDS011;7175;51.978;5.330;2022-12-29T03:33:02;31.23;;;28.93;;
14187;SDS011;7175;51.978;5.330;2022-12-29T03:35:35;30.43;;;28.13;;
14187;SDS011;7175;51.978;5.330;2022-12-29T03:38:07;30.17;;;27.87;;
14187;SDS011;7175;51.978;5.330;2022-12-29T03:40:39;31.10;;;28.80;;
14187;SDS011;7175;51.978;5.330;2022-12-29T03:43:10;31.90;;;29.50;;
14187;SDS011;7175;51.978;5.330;2022-12-29T03:45:39;33.27;;;30.77;;
14187;SDS011;7175;51.978;5.330;2022-12-29T03:48:08;34.87;;;32.27;;
14187;SDS011;7175;51.978;5.330;2022-12-29T03:50:37;34.57;;;31.97;;
14187;SDS011;7175;51.978;5.330;2022-12-29T03:53:05;35.90;;;33.23;;
14187;SDS011;7175;51.978;5.330;2022-12-29T03:55:33;36.27;;;33.57;;
14187;SDS011;7175;51.978;5.330;2022-12-29T03:58:01;37.67;;;34.87;;
14187;SDS011;7175;51.978;5.330;2022-12-29T04:00:30;39.67;;;36.77;;
14187;SDS011;7175;51.978;5.330;2022-12-29T04:02:58;38.53;;;35.73;;
14187;SDS011;7175;51.978;5.330;2022-12-29T04:05:26;39.07;;;36.17;;
14187;SDS011;7175;51.978;5.330;2022-12-29T04:07:56;38.43;;;35.63;;
14187;SDS011;7175;51.978;5.330;2022-12-29T04:10:24;36.83;;;34.13;;
14187;SDS011;7175;51.978;5.330;2022-12-29T04:12:52;34.40;;;31.90;;
14187;SDS011;7175;51.978;5.330;2022-12-29T04:15:20;32.63;;;30.23;;
14187;SDS011;7175;51.978;5.330;2022-12-29T04:17:49;31.63;;;29.33;;
14187;SDS011;7175;51.978;5.330;2022-12-29T04:20:17;30.20;;;28.00;;
14187;SDS011;7175;51.978;5.330;2022-12-29T04:23:01;28.33;;;26.23;;
14187;SDS011;7175;51.978;5.330;2022-12-29T04:25:30;28.63;;;26.53;;
14187;SDS011;7175;51.978;5.330;2022-12-29T04:27:59;26.97;;;24.97;;
14187;SDS011;7175;51.978;5.330;2022-12-29T04:30:28;26.17;;;24.17;;
14187;SDS011;7175;51.978;5.330;2022-12-29T04:32:56;25.30;;;23.40;;
14187;SDS011;7175;51.978;5.330;2022-12-29T04:35:24;24.93;;;23.03;;
14187;SDS011;7175;51.978;5.330;2022-12-29T04:37:52;23.30;;;21.50;;
14187;SDS011;7175;51.978;5.330;2022-12-29T04:40:21;23.60;;;21.80;;
14187;SDS011;7175;51.978;5.330;2022-12-29T04:42:50;23.63;;;21.83;;
14187;SDS011;7175;51.978;5.330;2022-12-29T04:45:18;24.40;;;22.53;;
14187;SDS011;7175;51.978;5.330;2022-12-29T04:47:46;24.10;;;22.30;;
14187;SDS011;7175;51.978;5.330;2022-12-29T04:50:15;24.97;;;23.07;;
14187;SDS011;7175;51.978;5.330;2022-12-29T04:52:43;24.57;;;22.67;;
14187;SDS011;7175;51.978;5.330;2022-12-29T04:55:11;24.60;;;22.70;;
14187;SDS011;7175;51.978;5.330;2022-12-29T04:57:41;24.63;;;22.73;;
14187;SDS011;7175;51.978;5.330;2022-12-29T05:00:09;23.30;;;21.57;;
14187;SDS011;7175;51.978;5.330;2022-12-29T05:02:39;23.63;;;21.87;;
14187;SDS011;7175;51.978;5.330;2022-12-29T05:05:08;23.20;;;21.50;;
14187;SDS011;7175;51.978;5.330;2022-12-29T05:07:37;23.00;;;21.30;;
14187;SDS011;7175;51.978;5.330;2022-12-29T05:10:05;23.90;;;22.20;;
14187;SDS011;7175;51.978;5.330;2022-12-29T05:12:35;23.70;;;22.00;;
14187;SDS011;7175;51.978;5.330;2022-12-29T05:15:07;23.80;;;22.00;;
14187;SDS011;7175;51.978;5.330;2022-12-29T05:17:36;23.40;;;21.60;;
14187;SDS011;7175;51.978;5.330;2022-12-29T05:20:04;23.90;;;22.10;;
14187;SDS011;7175;51.978;5.330;2022-12-29T05:22:34;22.97;;;21.27;;
14187;SDS011;7175;51.978;5.330;2022-12-29T05:25:02;23.07;;;21.37;;
14187;SDS011;7175;51.978;5.330;2022-12-29T05:27:30;23.27;;;21.57;;
14187;SDS011;7175;51.978;5.330;2022-12-29T05:29:58;23.30;;;21.60;;
14187;SDS011;7175;51.978;5.330;2022-12-29T05:32:28;22.70;;;21.00;;
14187;SDS011;7175;51.978;5.330;2022-12-29T05:34:56;22.43;;;20.73;;
14187;SDS011;7175;51.978;5.330;2022-12-29T05:37:24;22.93;;;21.23;;
14187;SDS011;7175;51.978;5.330;2022-12-29T05:39:52;21.60;;;20.00;;
14187;SDS011;7175;51.978;5.330;2022-12-29T05:42:20;21.70;;;20.10;;
14187;SDS011;7175;51.978;5.330;2022-12-29T05:44:48;19.67;;;18.17;;
14187;SDS011;7175;51.978;5.330;2022-12-29T05:47:20;20.00;;;18.50;;
14187;SDS011;7175;51.978;5.330;2022-12-29T05:49:49;19.97;;;18.47;;
14187;SDS011;7175;51.978;5.330;2022-12-29T05:52:18;19.50;;;18.10;;
14187;SDS011;7175;51.978;5.330;2022-12-29T05:54:46;19.67;;;18.17;;
14187;SDS011;7175;51.978;5.330;2022-12-29T05:57:14;18.20;;;16.80;;
14187;SDS011;7175;51.978;5.330;2022-12-29T05:59:42;18.90;;;17.50;;
14187;SDS011;7175;51.978;5.330;2022-12-29T06:02:10;19.40;;;17.90;;
14187;SDS011;7175;51.978;5.330;2022-12-29T06:04:39;18.00;;;16.70;;
14187;SDS011;7175;51.978;5.330;2022-12-29T06:07:08;18.20;;;16.80;;
14187;SDS011;7175;51.978;5.330;2022-12-29T06:09:37;18.77;;;17.37;;
14187;SDS011;7175;51.978;5.330;2022-12-29T06:12:05;17.93;;;16.63;;
14187;SDS011;7175;51.978;5.330;2022-12-29T06:14:33;18.53;;;17.13;;
14187;SDS011;7175;51.978;5.330;2022-12-29T06:17:01;17.90;;;16.60;;
14187;SDS011;7175;51.978;5.330;2022-12-29T06:19:30;18.30;;;16.90;;
14187;SDS011;7175;51.978;5.330;2022-12-29T06:21:58;17.90;;;16.60;;
14187;SDS011;7175;51.978;5.330;2022-12-29T06:24:27;17.80;;;16.50;;
14187;SDS011;7175;51.978;5.330;2022-12-29T06:26:56;18.10;;;16.80;;
14187;SDS011;7175;51.978;5.330;2022-12-29T06:29:24;18.73;;;17.33;;
14187;SDS011;7175;51.978;5.330;2022-12-29T06:31:52;17.93;;;16.63;;
14187;SDS011;7175;51.978;5.330;2022-12-29T06:34:22;18.67;;;17.27;;
14187;SDS011;7175;51.978;5.330;2022-12-29T06:36:51;19.23;;;17.77;;
14187;SDS011;7175;51.978;5.330;2022-12-29T06:39:19;19.53;;;18.03;;
14187;SDS011;7175;51.978;5.330;2022-12-29T06:41:49;19.93;;;18.43;;
14187;SDS011;7175;51.978;5.330;2022-12-29T06:44:19;19.63;;;18.03;;
14187;SDS011;7175;51.978;5.330;2022-12-29T06:46:47;17.13;;;15.83;;
14187;SDS011;7175;51.978;5.330;2022-12-29T06:49:15;18.10;;;16.70;;
14187;SDS011;7175;51.978;5.330;2022-12-29T06:51:43;18.80;;;17.40;;
14187;SDS011;7175;51.978;5.330;2022-12-29T06:54:12;18.93;;;17.50;;
14187;SDS011;7175;51.978;5.330;2022-12-29T06:56:40;19.90;;;18.40;;
14187;SDS011;7175;51.978;5.330;2022-12-29T06:59:09;20.43;;;18.83;;
14187;SDS011;7175;51.978;5.330;2022-12-29T07:01:38;21.97;;;20.27;;
14187;SDS011;7175;51.978;5.330;2022-12-29T07:04:06;23.90;;;22.10;;
14187;SDS011;7175;51.978;5.330;2022-12-29T07:06:34;26.23;;;24.23;;
14187;SDS011;7175;51.978;5.330;2022-12-29T07:09:02;27.67;;;25.57;;
14187;SDS011;7175;51.978;5.330;2022-12-29T07:11:30;29.07;;;26.87;;
14187;SDS011;7175;51.978;5.330;2022-12-29T07:13:58;32.27;;;29.87;;
14187;SDS011;7175;51.978;5.330;2022-12-29T07:16:31;33.70;;;31.10;;
14187;SDS011;7175;51.978;5.330;2022-12-29T07:19:00;35.00;;;32.30;;
14187;SDS011;7175;51.978;5.330;2022-12-29T07:21:28;35.27;;;32.47;;
14187;SDS011;7175;51.978;5.330;2022-12-29T07:23:57;35.70;;;32.80;;
14187;SDS011;7175;51.978;5.330;2022-12-29T07:26:25;37.50;;;34.50;;
14187;SDS011;7175;51.978;5.330;2022-12-29T07:29:01;37.17;;;34.17;;
14187;SDS011;7175;51.978;5.330;2022-12-29T07:31:29;35.90;;;33.00;;
14187;SDS011;7175;51.978;5.330;2022-12-29T07:33:59;35.03;;;32.23;;
14187;SDS011;7175;51.978;5.330;2022-12-29T07:36:27;35.57;;;32.70;;
14187;SDS011;7175;51.978;5.330;2022-12-29T07:39:00;35.30;;;32.40;;
14187;SDS011;7175;51.978;5.330;2022-12-29T07:41:29;32.20;;;29.60;;
14187;SDS011;7175;51.978;5.330;2022-12-29T07:43:57;32.80;;;30.10;;
14187;SDS011;7175;51.978;5.330;2022-12-29T07:46:25;34.13;;;31.33;;
14187;SDS011;7175;51.978;5.330;2022-12-29T07:49:15;43.03;;;39.63;;
14187;SDS011;7175;51.978;5.330;2022-12-29T07:51:43;36.80;;;33.90;;
14187;SDS011;7175;51.978;5.330;2022-12-29T07:54:11;50.83;;;33.40;;
14187;SDS011;7175;51.978;5.330;2022-12-29T07:56:39;34.03;;;31.27;;
14187;SDS011;7175;51.978;5.330;2022-12-29T07:59:08;41.08;;;37.97;;
14187;SDS011;7175;51.978;5.330;2022-12-29T08:01:36;32.65;;;30.05;;
14187;SDS011;7175;51.978;5.330;2022-12-29T08:04:04;30.17;;;27.77;;
14187;SDS011;7175;51.978;5.330;2022-12-29T08:06:34;29.20;;;26.90;;
14187;SDS011;7175;51.978;5.330;2022-12-29T08:09:04;28.27;;;26.07;;
14187;SDS011;7175;51.978;5.330;2022-12-29T08:11:45;27.30;;;25.10;;
14187;SDS011;7175;51.978;5.330;2022-12-29T08:14:13;24.60;;;22.60;;
14187;SDS011;7175;51.978;5.330;2022-12-29T08:16:41;26.03;;;23.53;;
14187;SDS011;7175;51.978;5.330;2022-12-29T08:19:09;22.87;;;20.97;;
14187;SDS011;7175;51.978;5.330;2022-12-29T08:21:39;21.63;;;19.83;;
14187;SDS011;7175;51.978;5.330;2022-12-29T08:24:08;22.20;;;20.33;;
14187;SDS011;7175;51.978;5.330;2022-12-29T08:26:36;22.13;;;20.33;;
14187;SDS011;7175;51.978;5.330;2022-12-29T08:29:04;21.23;;;19.43;;
14187;SDS011;7175;51.978;5.330;2022-12-29T08:31:32;20.57;;;18.87;;
14187;SDS011;7175;51.978;5.330;2022-12-29T08:34:01;20.30;;;18.60;;
14187;SDS011;7175;51.978;5.330;2022-12-29T08:36:30;19.83;;;18.23;;
14187;SDS011;7175;51.978;5.330;2022-12-29T08:39:00;19.60;;;17.93;;
14187;SDS011;7175;51.978;5.330;2022-12-29T08:41:29;18.93;;;17.33;;
14187;SDS011;7175;51.978;5.330;2022-12-29T08:43:57;19.70;;;18.00;;
14187;SDS011;7175;51.978;5.330;2022-12-29T08:46:25;19.60;;;18.00;;
14187;SDS011;7175;51.978;5.330;2022-12-29T08:48:53;19.30;;;17.70;;
14187;SDS011;7175;51.978;5.330;2022-12-29T08:51:22;20.57;;;18.87;;
14187;SDS011;7175;51.978;5.330;2022-12-29T08:53:51;20.90;;;19.10;;
14187;SDS011;7175;51.978;5.330;2022-12-29T08:56:20;21.90;;;20.00;;
14187;SDS011;7175;51.978;5.330;2022-12-29T08:58:50;22.40;;;20.50;;
14187;SDS011;7175;51.978;5.330;2022-12-29T09:01:18;21.80;;;19.90;;
14187;SDS011;7175;51.978;5.330;2022-12-29T09:03:46;22.90;;;20.90;;
14187;SDS011;7175;51.978;5.330;2022-12-29T09:06:35;22.20;;;20.30;;
14187;SDS011;7175;51.978;5.330;2022-12-29T09:09:06;23.33;;;21.33;;
14187;SDS011;7175;51.978;5.330;2022-12-29T09:11:35;22.53;;;20.63;;
14187;SDS011;7175;51.978;5.330;2022-12-29T09:14:04;22.70;;;20.80;;
14187;SDS011;7175;51.978;5.330;2022-12-29T09:16:32;23.37;;;21.37;;
14187;SDS011;7175;51.978;5.330;2022-12-29T09:19:01;24.33;;;22.13;;
14187;SDS011;7175;51.978;5.330;2022-12-29T09:21:30;24.10;;;22.00;;
14187;SDS011;7175;51.978;5.330;2022-12-29T09:23:58;24.17;;;22.17;;
14187;SDS011;7175;51.978;5.330;2022-12-29T09:26:27;23.83;;;21.83;;
14187;SDS011;7175;51.978;5.330;2022-12-29T09:28:57;25.20;;;23.10;;
14187;SDS011;7175;51.978;5.330;2022-12-29T09:31:25;27.70;;;25.50;;
14187;SDS011;7175;51.978;5.330;2022-12-29T09:33:53;28.80;;;26.50;;
14187;SDS011;7175;51.978;5.330;2022-12-29T09:36:21;27.07;;;24.87;;
14187;SDS011;7175;51.978;5.330;2022-12-29T09:38:50;29.37;;;26.97;;
14187;SDS011;7175;51.978;5.330;2022-12-29T09:41:20;32.57;;;29.97;;
14187;SDS011;7175;51.978;5.330;2022-12-29T09:44:03;31.73;;;29.13;;
14187;SDS011;7175;51.978;5.330;2022-12-29T09:46:39;32.43;;;29.73;;
14187;SDS011;7175;51.978;5.330;2022-12-29T09:49:15;34.30;;;31.50;;
14187;SDS011;7175;51.978;5.330;2022-12-29T09:51:51;34.90;;;32.07;;
14187;SDS011;7175;51.978;5.330;2022-12-29T09:54:29;36.13;;;33.23;;
14187;SDS011;7175;51.978;5.330;2022-12-29T09:57:04;35.17;;;32.17;;
14187;SDS011;7175;51.978;5.330;2022-12-29T09:59:40;35.83;;;32.77;;
14187;SDS011;7175;51.978;5.330;2022-12-29T10:02:12;38.07;;;34.87;;
14187;SDS011;7175;51.978;5.330;2022-12-29T10:04:51;40.80;;;37.40;;
14187;SDS011;7175;51.978;5.330;2022-12-29T10:07:23;39.90;;;36.60;;
14187;SDS011;7175;51.978;5.330;2022-12-29T10:09:58;39.77;;;36.47;;
14187;SDS011;7175;51.978;5.330;2022-12-29T10:12:42;40.40;;;37.10;;
14187;SDS011;7175;51.978;5.330;2022-12-29T10:15:27;39.27;;;35.97;;
14187;SDS011;7175;51.978;5.330;2022-12-29T10:18:10;41.57;;;38.17;;
14187;SDS011;7175;51.978;5.330;2022-12-29T10:20:48;39.60;;;36.30;;
14187;SDS011;7175;51.978;5.330;2022-12-29T10:23:25;39.77;;;36.47;;
14187;SDS011;7175;51.978;5.330;2022-12-29T10:25:57;41.40;;;37.93;;
14187;SDS011;7175;51.978;5.330;2022-12-29T10:28:31;42.20;;;38.70;;
14187;SDS011;7175;51.978;5.330;2022-12-29T10:31:05;41.63;;;38.23;;
14187;SDS011;7175;51.978;5.330;2022-12-29T10:33:41;41.83;;;38.33;;
14187;SDS011;7175;51.978;5.330;2022-12-29T10:36:12;41.37;;;37.87;;
14187;SDS011;7175;51.978;5.330;2022-12-29T10:38:45;42.03;;;38.53;;
14187;SDS011;7175;51.978;5.330;2022-12-29T10:41:20;40.97;;;37.57;;
14187;SDS011;7175;51.978;5.330;2022-12-29T10:43:53;42.17;;;38.77;;
14187;SDS011;7175;51.978;5.330;2022-12-29T10:46:27;43.07;;;39.60;;
14187;SDS011;7175;51.978;5.330;2022-12-29T10:48:56;41.90;;;38.50;;
14187;SDS011;7175;51.978;5.330;2022-12-29T10:51:25;43.40;;;39.90;;
14187;SDS011;7175;51.978;5.330;2022-12-29T10:53:57;40.53;;;37.23;;
14187;SDS011;7175;51.978;5.330;2022-12-29T10:56:32;41.80;;;38.40;;
14187;SDS011;7175;51.978;5.330;2022-12-29T10:59:05;43.97;;;40.57;;
14187;SDS011;7175;51.978;5.330;2022-12-29T11:01:42;42.93;;;39.53;;
14187;SDS011;7175;51.978;5.330;2022-12-29T11:04:29;41.17;;;37.87;;
14187;SDS011;7175;51.978;5.330;2022-12-29T11:07:09;39.17;;;35.97;;
14187;SDS011;7175;51.978;5.330;2022-12-29T11:09:42;38.50;;;35.30;;
14187;SDS011;7175;51.978;5.330;2022-12-29T11:12:18;38.20;;;35.00;;
14187;SDS011;7175;51.978;5.330;2022-12-29T11:15:00;41.17;;;37.77;;
14187;SDS011;7175;51.978;5.330;2022-12-29T11:17:31;38.07;;;34.87;;
14187;SDS011;7175;51.978;5.330;2022-12-29T11:20:30;38.90;;;35.30;;
14187;SDS011;7175;51.978;5.330;2022-12-29T11:23:01;37.43;;;34.23;;
14187;SDS011;7175;51.978;5.330;2022-12-29T11:25:31;36.27;;;33.17;;
14187;SDS011;7175;51.978;5.330;2022-12-29T11:28:00;35.87;;;32.77;;
14187;SDS011;7175;51.978;5.330;2022-12-29T11:30:31;36.47;;;33.27;;
14187;SDS011;7175;51.978;5.330;2022-12-29T11:33:02;38.90;;;35.53;;
14187;SDS011;7175;51.978;5.330;2022-12-29T11:35:33;41.47;;;37.97;;
14187;SDS011;7175;51.978;5.330;2022-12-29T11:38:03;42.97;;;38.83;;
14187;SDS011;7175;51.978;5.330;2022-12-29T11:40:32;37.03;;;33.83;;
14187;SDS011;7175;51.978;5.330;2022-12-29T11:43:06;37.07;;;33.97;;
14187;SDS011;7175;51.978;5.330;2022-12-29T11:45:47;36.70;;;33.70;;
14187;SDS011;7175;51.978;5.330;2022-12-29T11:48:17;38.30;;;35.20;;
14187;SDS011;7175;51.978;5.330;2022-12-29T11:50:48;38.43;;;35.43;;
14187;SDS011;7175;51.978;5.330;2022-12-29T11:53:20;49.33;;;45.30;;
14187;SDS011;7175;51.978;5.330;2022-12-29T11:55:51;46.07;;;42.37;;
14187;SDS011;7175;51.978;5.330;2022-12-29T11:58:28;45.87;;;42.17;;
14187;SDS011;7175;51.978;5.330;2022-12-29T12:00:59;49.17;;;45.17;;
14187;SDS011;7175;51.978;5.330;2022-12-29T12:03:34;45.80;;;42.10;;
14187;SDS011;7175;51.978;5.330;2022-12-29T12:06:05;44.57;;;40.87;;
14187;SDS011;7175;51.978;5.330;2022-12-29T12:08:40;45.10;;;41.40;;
14187;SDS011;7175;51.978;5.330;2022-12-29T12:11:12;43.00;;;39.47;;
14187;SDS011;7175;51.978;5.330;2022-12-29T12:13:43;44.87;;;41.27;;
14187;SDS011;7175;51.978;5.330;2022-12-29T12:16:20;44.73;;;41.07;;
14187;SDS011;7175;51.978;5.330;2022-12-29T12:18:55;46.60;;;42.90;;
14187;SDS011;7175;51.978;5.330;2022-12-29T12:21:30;44.90;;;41.30;;
14187;SDS011;7175;51.978;5.330;2022-12-29T12:24:15;40.17;;;36.90;;
14187;SDS011;7175;51.978;5.330;2022-12-29T12:26:59;40.10;;;36.80;;
14187;SDS011;7175;51.978;5.330;2022-12-29T12:29:33;40.27;;;36.97;;
14187;SDS011;7175;51.978;5.330;2022-12-29T12:32:08;37.27;;;34.17;;
14187;SDS011;7175;51.978;5.330;2022-12-29T12:34:44;39.37;;;36.07;;
14187;SDS011;7175;51.978;5.330;2022-12-29T12:37:27;42.03;;;38.53;;
14187;SDS011;7175;51.978;5.330;2022-12-29T12:40:11;39.20;;;36.00;;
14187;SDS011;7175;51.978;5.330;2022-12-29T12:42:57;39.77;;;36.57;;
14187;SDS011;7175;51.978;5.330;2022-12-29T12:45:48;36.80;;;33.80;;
14187;SDS011;7175;51.978;5.330;2022-12-29T12:48:30;35.17;;;32.27;;
14187;SDS011;7175;51.978;5.330;2022-12-29T12:51:14;34.43;;;31.53;;
14187;SDS011;7175;51.978;5.330;2022-12-29T12:53:51;33.70;;;30.90;;
14187;SDS011;7175;51.978;5.330;2022-12-29T12:59:30;31.40;;;28.70;;
14187;SDS011;7175;51.978;5.330;2022-12-29T13:02:11;34.93;;;30.20;;
14187;SDS011;7175;51.978;5.330;2022-12-29T13:07:59;31.10;;;28.50;;
14187;SDS011;7175;51.978;5.330;2022-12-29T13:10:41;31.93;;;29.43;;
14187;SDS011;7175;51.978;5.330;2022-12-29T13:13:24;30.43;;;28.03;;
14187;SDS011;7175;51.978;5.330;2022-12-29T13:16:14;30.37;;;27.93;;
14187;SDS011;7175;51.978;5.330;2022-12-29T13:18:52;30.00;;;27.60;;
14187;SDS011;7175;51.978;5.330;2022-12-29T13:21:29;28.53;;;26.23;;
14187;SDS011;7175;51.978;5.330;2022-12-29T13:24:10;30.50;;;27.07;;
14187;SDS011;7175;51.978;5.330;2022-12-29T13:26:44;26.23;;;24.03;;
14187;SDS011;7175;51.978;5.330;2022-12-29T13:29:17;26.30;;;24.10;;
14187;SDS011;7175;51.978;5.330;2022-12-29T13:31:52;25.10;;;22.90;;
14187;SDS011;7175;51.978;5.330;2022-12-29T13:34:30;24.87;;;22.77;;
14187;SDS011;7175;51.978;5.330;2022-12-29T13:37:04;25.33;;;23.20;;
14187;SDS011;7175;51.978;5.330;2022-12-29T13:39:39;26.53;;;24.33;;
14187;SDS011;7175;51.978;5.330;2022-12-29T13:42:13;24.37;;;22.27;;
14187;SDS011;7175;51.978;5.330;2022-12-29T13:44:45;24.13;;;22.03;;
14187;SDS011;7175;51.978;5.330;2022-12-29T13:47:19;25.83;;;23.63;;
14187;SDS011;7175;51.978;5.330;2022-12-29T13:49:59;28.40;;;26.10;;
14187;SDS011;7175;51.978;5.330;2022-12-29T13:52:32;28.10;;;25.70;;
14187;SDS011;7175;51.978;5.330;2022-12-29T13:55:16;28.30;;;26.00;;
14187;SDS011;7175;51.978;5.330;2022-12-29T13:57:54;26.80;;;24.60;;
14187;SDS011;7175;51.978;5.330;2022-12-29T14:00:29;24.70;;;22.70;;
14187;SDS011;7175;51.978;5.330;2022-12-29T14:03:17;23.03;;;21.03;;
14187;SDS011;7175;51.978;5.330;2022-12-29T14:06:04;24.10;;;22.10;;
14187;SDS011;7175;51.978;5.330;2022-12-29T14:08:41;23.60;;;21.60;;
14187;SDS011;7175;51.978;5.330;2022-12-29T14:11:13;21.60;;;19.80;;
14187;SDS011;7175;51.978;5.330;2022-12-29T14:13:44;22.27;;;20.37;;
14187;SDS011;7175;51.978;5.330;2022-12-29T14:19:06;26.23;;;24.03;;
14187;SDS011;7175;51.978;5.330;2022-12-29T14:21:41;26.13;;;23.83;;
14187;SDS011;7175;51.978;5.330;2022-12-29T14:24:38;28.97;;;26.57;;
14187;SDS011;7175;51.978;5.330;2022-12-29T14:33:19;32.60;;;29.90;;
14187;SDS011;7175;51.978;5.330;2022-12-29T14:35:49;32.83;;;30.13;;
14187;SDS011;7175;51.978;5.330;2022-12-29T14:38:20;43.60;;;40.10;;
14187;SDS011;7175;51.978;5.330;2022-12-29T14:46:48;39.80;;;36.60;;
14187;SDS011;7175;51.978;5.330;2022-12-29T14:49:24;40.63;;;37.43;;
14187;SDS011;7175;51.978;5.330;2022-12-29T14:52:03;38.83;;;35.73;;
14187;SDS011;7175;51.978;5.330;2022-12-29T14:54:40;36.73;;;33.73;;
14187;SDS011;7175;51.978;5.330;2022-12-29T14:57:14;38.00;;;34.90;;
14187;SDS011;7175;51.978;5.330;2022-12-29T14:59:53;36.30;;;33.37;;
14187;SDS011;7175;51.978;5.330;2022-12-29T15:02:26;36.60;;;33.60;;
14187;SDS011;7175;51.978;5.330;2022-12-29T15:05:01;34.90;;;32.10;;
14187;SDS011;7175;51.978;5.330;2022-12-29T15:07:31;33.63;;;30.83;;
14187;SDS011;7175;51.978;5.330;2022-12-29T15:10:03;33.47;;;30.73;;
14187;SDS011;7175;51.978;5.330;2022-12-29T15:12:36;33.10;;;30.40;;
14187;SDS011;7175;51.978;5.330;2022-12-29T15:15:16;33.37;;;30.67;;
14187;SDS011;7175;51.978;5.330;2022-12-29T15:17:48;34.83;;;32.00;;
14187;SDS011;7175;51.978;5.330;2022-12-29T15:20:21;32.87;;;30.27;;
14187;SDS011;7175;51.978;5.330;2022-12-29T15:22:53;33.93;;;31.33;;
14187;SDS011;7175;51.978;5.330;2022-12-29T15:25:23;32.87;;;30.27;;
14187;SDS011;7175;51.978;5.330;2022-12-29T15:27:55;33.57;;;30.97;;
14187;SDS011;7175;51.978;5.330;2022-12-29T15:30:27;34.40;;;31.70;;
14187;SDS011;7175;51.978;5.330;2022-12-29T15:32:57;34.17;;;31.47;;
14187;SDS011;7175;51.978;5.330;2022-12-29T15:35:29;31.77;;;29.37;;